Time;durP1;ratioP1;P1;durP2;ratioP2;P2;SDS_P1;SDS_P2;PMS_P1;PMS_P2;Temp;Humidity;BMP_temperature;BMP_pressure;BME280_temperature;BME280_humidity;BME280_pressure;Samples;Min_cycle;Max_cycle;Signal;HPM_P1;HPM_P2
2021/06/14 00:01:03;;;;;;;26.30;22.00;;;25.10;90.10;;;;;;5075475;28;20478;-83
2021/06/14 00:03:29;;;;;;;26.42;21.63;;;25.10;90.10;;;;;;5064755;28;20039;-84
2021/06/14 00:05:55;;;;;;;25.95;21.70;;;25.10;90.10;;;;;;5092948;28;20040;-83
2021/06/14 00:08:22;;;;;;;27.73;22.00;;;25.10;90.10;;;;;;5070622;28;20466;-83
2021/06/14 00:10:50;;;;;;;26.58;22.52;;;25.10;90.10;;;;;;5062166;28;20097;-83
2021/06/14 00:13:17;;;;;;;26.13;22.20;;;25.10;90.10;;;;;;5079309;28;20031;-83
2021/06/14 00:15:44;;;;;;;26.95;23.30;;;25.10;90.20;;;;;;5097451;28;20480;-82
2021/06/14 00:18:10;;;;;;;28.00;22.58;;;25.10;90.20;;;;;;5097354;28;20425;-83
2021/06/14 00:20:36;;;;;;;24.75;21.67;;;25.10;90.20;;;;;;5078655;28;20465;-83
2021/06/14 00:23:04;;;;;;;25.77;21.98;;;25.10;90.20;;;;;;5096608;28;20028;-83
2021/06/14 00:25:32;;;;;;;26.63;21.85;;;25.10;90.20;;;;;;5078572;28;20031;-83
2021/06/14 00:27:58;;;;;;;26.52;22.55;;;25.10;90.20;;;;;;5096609;28;20024;-83
2021/06/14 00:30:29;;;;;;;25.63;21.73;;;25.10;90.20;;;;;;5078613;28;20032;-83
2021/06/14 00:32:55;;;;;;;27.08;22.08;;;25.10;90.30;;;;;;5078129;28;20055;-83
2021/06/14 00:35:21;;;;;;;25.75;21.70;;;25.10;90.30;;;;;;5078292;28;20073;-83
2021/06/14 00:37:46;;;;;;;25.00;21.42;;;25.10;90.30;;;;;;5078330;28;20405;-83
2021/06/14 00:40:13;;;;;;;26.20;21.75;;;25.10;90.30;;;;;;5061590;28;20028;-84
2021/06/14 00:42:38;;;;;;;24.02;21.13;;;25.10;90.30;;;;;;5078842;28;20056;-84
2021/06/14 00:45:08;;;;;;;24.17;20.85;;;25.10;90.30;;;;;;5077938;28;20437;-84
2021/06/14 00:47:34;;;;;;;24.05;21.17;;;25.10;90.30;;;;;;5096093;28;20039;-84
2021/06/14 00:50:00;;;;;;;23.35;19.80;;;25.10;90.30;;;;;;5077879;28;20205;-84
2021/06/14 00:52:25;;;;;;;24.92;21.25;;;25.10;90.30;;;;;;5045101;28;20028;-83
2021/06/14 00:54:51;;;;;;;26.70;21.65;;;25.10;90.40;;;;;;5078186;28;20119;-83
2021/06/14 00:57:17;;;;;;;23.00;20.50;;;25.10;90.40;;;;;;5061050;28;20518;-83
2021/06/14 00:59:43;;;;;;;24.10;20.17;;;25.10;90.40;;;;;;5061113;28;20163;-83
2021/06/14 01:02:09;;;;;;;21.98;19.50;;;25.10;90.40;;;;;;5096244;28;20043;-83
2021/06/14 01:04:34;;;;;;;23.33;19.73;;;25.10;90.40;;;;;;5078061;28;20028;-83
2021/06/14 01:07:00;;;;;;;23.50;19.58;;;25.10;90.40;;;;;;5077591;28;20043;-83
2021/06/14 01:09:26;;;;;;;23.15;19.13;;;25.10;90.40;;;;;;5077525;28;20051;-83
2021/06/14 01:12:07;;;;;;;23.45;19.48;;;25.10;90.40;;;;;;5078014;28;20055;-83
2021/06/14 01:14:50;;;;;;;22.95;19.13;;;25.10;90.40;;;;;;5096064;28;20603;-83
2021/06/14 01:17:28;;;;;;;21.95;18.75;;;25.10;90.40;;;;;;5095692;28;20030;-83
2021/06/14 01:20:25;;;;;;;23.05;18.35;;;25.10;90.50;;;;;;5077890;28;20030;-83
2021/06/14 01:23:32;;;;;;;22.60;18.75;;;25.10;90.50;;;;;;5077897;28;20032;-83
2021/06/14 01:26:07;;;;;;;20.50;18.05;;;25.10;90.50;;;;;;5095029;28;20447;-84
2021/06/14 01:28:34;;;;;;;;;;;25.10;90.50;;;;;;5096572;28;20028;-84
2021/06/14 01:31:01;;;;;;;23.15;19.00;;;25.00;90.50;;;;;;5077299;28;20011;-84
2021/06/14 01:33:28;;;;;;;20.30;17.65;;;25.00;90.60;;;;;;5077463;28;20073;-83
2021/06/14 01:36:01;;;;;;;21.80;17.70;;;25.10;90.60;;;;;;5095332;28;20082;-83
2021/06/14 01:38:29;;;;;;;19.77;17.02;;;25.00;90.60;;;;;;5077433;28;20534;-84
2021/06/14 01:41:00;;;;;;;19.70;16.67;;;25.00;90.60;;;;;;5077090;28;20084;-83
2021/06/14 01:43:28;;;;;;;21.17;16.52;;;25.00;90.60;;;;;;5078185;28;20031;-83
2021/06/14 01:46:01;;;;;;;19.70;16.70;;;25.00;90.60;;;;;;5096216;28;20032;-83
2021/06/14 01:48:28;;;;;;;18.03;14.87;;;25.00;90.60;;;;;;5095257;28;20110;-84
2021/06/14 01:50:55;;;;;;;19.48;16.40;;;25.10;90.70;;;;;;5095663;28;20028;-84
2021/06/14 01:53:21;;;;;;;19.40;15.73;;;25.10;90.70;;;;;;5059915;28;20032;-84
2021/06/14 01:55:47;;;;;;;19.17;15.57;;;25.10;90.70;;;;;;5060387;28;20030;-83
2021/06/14 01:58:16;;;;;;;19.08;15.38;;;25.00;90.60;;;;;;5060251;28;20024;-84
2021/06/14 02:00:43;;;;;;;16.80;14.13;;;25.00;90.60;;;;;;5076263;28;20474;-83
2021/06/14 02:03:10;;;;;;;16.10;14.05;;;25.10;90.70;;;;;;5076809;28;20039;-83
2021/06/14 02:05:37;;;;;;;16.23;14.43;;;25.00;90.70;;;;;;5060060;28;20050;-83
2021/06/14 02:08:07;;;;;;;16.35;13.95;;;25.00;90.70;;;;;;5060073;28;20032;-84
2021/06/14 02:10:35;;;;;;;16.90;13.68;;;25.00;90.70;;;;;;5073229;28;20510;-82
2021/06/14 02:13:03;;;;;;;15.73;13.32;;;25.00;90.70;;;;;;5056861;28;20075;-83
2021/06/14 02:15:29;;;;;;;14.73;12.68;;;25.00;90.70;;;;;;5074805;28;20103;-83
2021/06/14 02:17:58;;;;;;;14.13;12.60;;;25.00;90.70;;;;;;5057086;28;20036;-82
2021/06/14 02:20:24;;;;;;;15.00;12.57;;;25.00;90.70;;;;;;5074443;28;20025;-83
2021/06/14 02:22:50;;;;;;;15.20;12.60;;;25.00;90.60;;;;;;5056687;28;20029;-82
2021/06/14 02:25:17;;;;;;;13.52;11.93;;;25.00;90.70;;;;;;5072375;28;20375;-83
2021/06/14 02:27:42;;;;;;;13.93;11.65;;;25.00;90.70;;;;;;5074328;28;20040;-83
2021/06/14 02:30:15;;;;;;;15.07;12.23;;;25.00;90.70;;;;;;5056577;28;20031;-83
2021/06/14 02:32:41;;;;;;;12.32;11.02;;;25.00;90.70;;;;;;5073251;28;20195;-83
2021/06/14 02:35:08;;;;;;;11.82;10.32;;;25.00;90.70;;;;;;5074203;28;20028;-84
2021/06/14 02:37:36;;;;;;;13.02;11.13;;;25.00;90.70;;;;;;5072991;28;20127;-83
2021/06/14 02:40:05;;;;;;;13.45;11.20;;;25.00;90.70;;;;;;5073271;28;20025;-83
2021/06/14 02:42:31;;;;;;;11.60;10.15;;;25.00;90.70;;;;;;5073302;28;20474;-84
2021/06/14 02:44:57;;;;;;;11.00;9.88;;;25.00;90.70;;;;;;5056460;28;20089;-84
2021/06/14 02:47:23;;;;;;;12.45;10.90;;;25.00;91.00;;;;;;5072548;28;20036;-84
2021/06/14 02:49:50;;;;;;;11.88;9.88;;;25.00;90.70;;;;;;5056141;28;20571;-83
2021/06/14 02:52:17;;;;;;;10.52;9.20;;;25.00;90.70;;;;;;5074034;28;20054;-84
2021/06/14 02:55:14;;;;;;;11.80;9.98;;;25.00;90.70;;;;;;5039890;28;20441;-83
2021/06/14 02:57:45;;;;;;;10.23;9.13;;;25.00;90.70;;;;;;5057579;28;20048;-83
2021/06/14 03:00:12;;;;;;;12.35;10.00;;;25.00;90.80;;;;;;5072732;28;20387;-84
2021/06/14 03:02:38;;;;;;;10.80;9.48;;;25.00;90.80;;;;;;5056229;28;20032;-83
2021/06/14 03:05:05;;;;;;;10.30;8.45;;;25.00;90.80;;;;;;5072784;28;20066;-83
2021/06/14 03:07:31;;;;;;;10.77;8.88;;;25.00;90.80;;;;;;5072988;28;20055;-83
2021/06/14 03:09:57;;;;;;;10.43;9.32;;;25.00;90.80;;;;;;5056325;28;20475;-84
2021/06/14 03:12:26;;;;;;;10.25;8.82;;;25.00;90.80;;;;;;5075173;28;20035;-84
2021/06/14 03:14:52;;;;;;;10.60;8.85;;;25.00;90.80;;;;;;5075325;28;20056;-84
2021/06/14 03:17:18;;;;;;;10.05;8.73;;;25.00;90.80;;;;;;5058645;28;20036;-84
2021/06/14 03:19:48;;;;;;;10.35;8.73;;;25.00;90.80;;;;;;5060407;28;20020;-84
2021/06/14 03:22:15;;;;;;;8.90;7.95;;;25.00;90.80;;;;;;5061317;28;20036;-83
2021/06/14 03:24:41;;;;;;;9.73;8.00;;;25.00;90.80;;;;;;5059091;28;20133;-83
2021/06/14 03:27:09;;;;;;;8.70;7.20;;;25.00;90.80;;;;;;5075663;28;20036;-83
2021/06/14 03:29:35;;;;;;;8.65;7.75;;;25.00;90.80;;;;;;5058728;28;20471;-84
2021/06/14 03:32:03;;;;;;;10.20;8.13;;;25.00;90.80;;;;;;5075454;28;20036;-84
2021/06/14 03:34:31;;;;;;;9.65;8.10;;;25.00;90.80;;;;;;5093055;28;20485;-84
2021/06/14 03:36:59;;;;;;;9.57;7.95;;;25.00;90.90;;;;;;5075021;28;20036;-84
2021/06/14 03:39:25;;;;;;;9.65;8.18;;;25.00;90.80;;;;;;5058765;28;20030;-84
2021/06/14 03:41:51;;;;;;;9.05;7.65;;;25.00;90.80;;;;;;5075596;28;20028;-83
2021/06/14 03:44:18;;;;;;;7.72;6.78;;;25.00;90.80;;;;;;5075409;28;20529;-84
2021/06/14 03:46:44;;;;;;;8.35;7.10;;;25.00;90.80;;;;;;5075091;28;20036;-84
2021/06/14 03:49:10;;;;;;;8.80;7.18;;;25.00;90.80;;;;;;5058569;28;20028;-83
2021/06/14 03:51:36;;;;;;;7.63;6.82;;;25.00;90.80;;;;;;5075119;28;20073;-83
2021/06/14 03:54:03;;;;;;;8.18;6.63;;;25.00;90.80;;;;;;5093179;28;20032;-82
2021/06/14 03:56:33;;;;;;;8.65;6.78;;;25.00;90.80;;;;;;5093133;28;20047;-83
2021/06/14 03:59:00;;;;;;;6.97;6.10;;;25.00;90.90;;;;;;5093381;28;20488;-83
2021/06/14 04:01:26;;;;;;;7.90;6.78;;;25.00;90.90;;;;;;5074955;28;20059;-84
2021/06/14 04:06:28;;;;;;;8.32;6.60;;;25.00;90.90;;;;;;5092942;28;20093;-84
2021/06/14 04:08:53;;;;;;;6.57;5.88;;;25.00;90.90;;;;;;5093455;28;20081;-83
2021/06/14 04:11:19;;;;;;;7.22;6.43;;;25.00;90.90;;;;;;5074750;28;20131;-84
2021/06/14 04:13:45;;;;;;;7.03;6.25;;;25.00;90.90;;;;;;5058428;28;20028;-84
2021/06/14 04:16:12;;;;;;;6.43;5.63;;;25.00;90.90;;;;;;5074930;28;20028;-83
2021/06/14 04:18:37;;;;;;;6.78;6.07;;;25.00;90.90;;;;;;5074446;28;20027;-84
2021/06/14 04:21:03;;;;;;;6.70;5.45;;;25.00;90.90;;;;;;5074907;28;20178;-83
2021/06/14 04:23:29;;;;;;;6.20;5.60;;;25.00;90.90;;;;;;5058136;28;20101;-84
2021/06/14 04:25:55;;;;;;;5.70;5.07;;;25.00;90.90;;;;;;5058419;28;20451;-82
2021/06/14 04:28:20;;;;;;;6.40;5.25;;;25.00;90.90;;;;;;5074391;28;20470;-82
2021/06/14 04:30:46;;;;;;;5.65;4.88;;;25.00;90.90;;;;;;5093278;28;20081;-83
2021/06/14 04:33:12;;;;;;;5.57;4.97;;;25.00;90.90;;;;;;5075293;28;20077;-83
2021/06/14 04:35:37;;;;;;;6.40;5.55;;;25.00;90.90;;;;;;5041230;28;20919;-83
2021/06/14 04:38:03;;;;;;;6.05;5.45;;;25.00;90.90;;;;;;5075089;28;20127;-83
2021/06/14 04:40:29;;;;;;;5.60;5.05;;;25.00;90.90;;;;;;5074632;28;20036;-83
2021/06/14 04:42:54;;;;;;;5.72;5.10;;;25.00;90.90;;;;;;5058538;28;20028;-83
2021/06/14 04:45:20;;;;;;;5.50;4.70;;;25.00;90.90;;;;;;5058042;28;20089;-84
2021/06/14 04:47:46;;;;;;;4.85;4.35;;;25.00;91.00;;;;;;5093342;28;20115;-82
2021/06/14 04:50:12;;;;;;;5.13;4.63;;;25.00;91.00;;;;;;5045336;28;20032;-82
2021/06/14 04:52:38;;;;;;;4.90;4.10;;;25.00;91.00;;;;;;5078168;28;20103;-84
2021/06/14 04:55:04;;;;;;;5.40;4.50;;;25.00;91.00;;;;;;5096419;28;20068;-82
2021/06/14 04:57:30;;;;;;;4.85;4.35;;;25.00;91.00;;;;;;5067853;28;20016;-84
2021/06/14 04:59:56;;;;;;;5.15;4.20;;;25.00;91.00;;;;;;5073966;28;20060;-83
2021/06/14 05:02:22;;;;;;;4.97;4.28;;;25.00;91.00;;;;;;5077840;28;20028;-84
2021/06/14 05:04:48;;;;;;;5.47;4.07;;;25.00;91.00;;;;;;5078487;28;20024;-83
2021/06/14 05:07:14;;;;;;;5.68;4.10;;;25.10;91.00;;;;;;5078186;28;20036;-83
2021/06/14 05:09:40;;;;;;;5.53;4.32;;;25.10;91.00;;;;;;5078019;28;20077;-83
2021/06/14 05:12:06;;;;;;;5.65;4.28;;;25.10;91.00;;;;;;5061084;28;20055;-83
2021/06/14 05:14:32;;;;;;;4.63;4.13;;;25.10;91.00;;;;;;5060686;28;20058;-83
2021/06/14 05:16:58;;;;;;;3.75;3.40;;;25.10;90.90;;;;;;5077893;28;20444;-84
2021/06/14 05:19:23;;;;;;;4.28;3.83;;;25.10;90.90;;;;;;5077704;28;20082;-84
2021/06/14 05:21:49;;;;;;;4.68;4.07;;;25.10;90.90;;;;;;5060914;28;20078;-83
2021/06/14 05:24:14;;;;;;;4.35;3.50;;;25.10;90.90;;;;;;5077728;28;20055;-83
2021/06/14 05:26:40;;;;;;;4.13;3.63;;;25.10;90.90;;;;;;5061057;28;20043;-84
2021/06/14 05:29:06;;;;;;;3.97;3.35;;;25.10;90.80;;;;;;5044782;28;20024;-83
2021/06/14 05:31:32;;;;;;;3.15;2.85;;;25.10;90.80;;;;;;5077121;28;20064;-82
2021/06/14 05:33:57;;;;;;;4.40;3.40;;;25.10;90.80;;;;;;5060867;28;20031;-83
2021/06/14 05:36:23;;;;;;;3.85;3.40;;;25.10;90.80;;;;;;5077309;28;20461;-83
2021/06/14 05:38:49;;;;;;;3.47;3.17;;;25.20;90.80;;;;;;5060603;28;20028;-83
2021/06/14 05:41:14;;;;;;;3.28;2.97;;;25.10;90.80;;;;;;5077392;28;20048;-83
2021/06/14 05:43:40;;;;;;;3.70;2.88;;;25.20;90.80;;;;;;5060402;28;20063;-83
2021/06/14 05:46:05;;;;;;;2.97;2.65;;;25.20;90.80;;;;;;5095353;28;20060;-83
2021/06/14 05:48:31;;;;;;;2.90;2.60;;;25.20;90.80;;;;;;5076909;28;20119;-83
2021/06/14 05:50:57;;;;;;;3.05;2.75;;;25.20;90.80;;;;;;5077342;28;20111;-83
2021/06/14 05:53:24;;;;;;;3.60;2.95;;;25.20;90.80;;;;;;5077208;28;20055;-83
2021/06/14 05:55:49;;;;;;;2.80;2.50;;;25.20;90.80;;;;;;5095098;28;20458;-82
2021/06/14 05:58:16;;;;;;;2.40;2.20;;;25.20;90.70;;;;;;5060590;28;20034;-83
2021/06/14 06:00:42;;;;;;;2.50;2.22;;;25.20;90.70;;;;;;5094008;28;20112;-83
2021/06/14 06:03:07;;;;;;;3.22;2.33;;;25.20;90.70;;;;;;5060537;28;20119;-83
2021/06/14 06:05:33;;;;;;;2.92;2.30;;;25.20;90.60;;;;;;5060475;28;20465;-84
2021/06/14 06:07:59;;;;;;;2.90;2.50;;;25.20;90.70;;;;;;5043701;28;20537;-83
2021/06/14 06:10:24;;;;;;;2.63;2.22;;;25.20;90.70;;;;;;5059621;28;20116;-84
2021/06/14 06:12:50;;;;;;;2.85;2.28;;;25.20;90.60;;;;;;5077055;28;20338;-83
2021/06/14 06:15:18;;;;;;;2.97;2.30;;;25.20;90.70;;;;;;5094962;28;20040;-84
2021/06/14 06:17:45;;;;;;;3.05;2.40;;;25.20;90.70;;;;;;5094591;28;20504;-84
2021/06/14 06:20:13;;;;;;;2.63;2.38;;;25.20;90.70;;;;;;5095158;28;20036;-84
2021/06/14 06:22:40;;;;;;;2.75;2.40;;;25.30;90.80;;;;;;5059841;28;20031;-85
2021/06/14 06:25:14;;;;;;;3.30;2.72;;;25.30;90.80;;;;;;5095169;28;20024;-84
2021/06/14 06:27:40;;;;;;;3.42;2.55;;;25.30;90.80;;;;;;5076606;28;20542;-84
2021/06/14 06:30:08;;;;;;;4.07;2.40;;;25.20;90.70;;;;;;5060133;28;20036;-84
2021/06/14 06:32:34;;;;;;;2.60;2.20;;;25.30;90.70;;;;;;5059789;28;20028;-85
2021/06/14 06:34:59;;;;;;;3.42;2.45;;;25.20;90.60;;;;;;5064497;28;20061;-84
2021/06/14 06:37:25;;;;;;;2.90;2.33;;;25.20;90.50;;;;;;5110359;28;20091;-84
2021/06/14 06:39:51;;;;;;;2.90;2.50;;;25.20;90.50;;;;;;5077889;28;20529;-84
2021/06/14 06:42:16;;;;;;;4.90;2.33;;;25.20;90.40;;;;;;5076277;28;20024;-84
2021/06/14 06:44:42;;;;;;;4.13;2.72;;;25.20;90.40;;;;;;5076601;28;20036;-84
2021/06/14 06:47:08;;;;;;;4.50;3.15;;;25.30;90.40;;;;;;5043297;28;20036;-85
2021/06/14 06:49:34;;;;;;;3.60;2.65;;;25.20;90.60;;;;;;5059370;28;20419;-87
2021/06/14 06:52:00;;;;;;;3.20;2.60;;;25.20;90.30;;;;;;5059410;28;20032;-84
2021/06/14 06:54:26;;;;;;;3.72;2.97;;;25.20;90.30;;;;;;5093977;28;20047;-84
2021/06/14 06:56:54;;;;;;;3.28;2.80;;;25.20;90.30;;;;;;5059573;28;20032;-84
2021/06/14 06:59:21;;;;;;;4.18;3.38;;;25.20;90.30;;;;;;5076340;28;20032;-85
2021/06/14 07:01:47;;;;;;;4.35;3.13;;;25.20;90.30;;;;;;5076108;28;20035;-84
2021/06/14 07:04:13;;;;;;;3.83;2.97;;;25.20;90.20;;;;;;5076147;28;20071;-85
2021/06/14 07:06:39;;;;;;;4.93;3.65;;;25.20;90.30;;;;;;5042482;28;20089;-85
2021/06/14 07:09:05;;;;;;;3.33;3.00;;;25.20;90.20;;;;;;5075963;28;20058;-85
2021/06/14 07:11:32;;;;;;;4.50;3.28;;;25.20;90.20;;;;;;5093562;28;20063;-85
2021/06/14 07:13:58;;;;;;;3.88;3.20;;;25.20;90.30;;;;;;5093568;28;20048;-85
2021/06/14 07:16:24;;;;;;;5.35;3.65;;;25.20;90.30;;;;;;5093567;28;20081;-85
2021/06/14 07:18:51;;;;;;;5.93;3.90;;;25.20;90.30;;;;;;5093544;28;20082;-85
2021/06/14 07:21:17;;;;;;;3.83;3.28;;;25.20;90.30;;;;;;5075680;28;20028;-85
2021/06/14 07:23:43;;;;;;;4.68;3.20;;;25.20;90.30;;;;;;5074968;28;20029;-86
2021/06/14 07:26:10;;;;;;;3.17;2.83;;;25.20;90.30;;;;;;5057823;28;20081;-85
2021/06/14 07:28:36;;;;;;;3.85;2.97;;;25.20;90.20;;;;;;5075662;28;20028;-85
2021/06/14 07:31:03;;;;;;;3.95;3.25;;;25.20;90.20;;;;;;5075175;28;20020;-85
2021/06/14 07:33:29;;;;;;;4.40;3.42;;;25.20;90.10;;;;;;5074584;28;20032;-85
2021/06/14 07:35:55;;;;;;;4.70;3.42;;;25.30;90.10;;;;;;5058862;28;20492;-85
2021/06/14 07:38:22;;;;;;;4.40;3.45;;;25.20;90.00;;;;;;5093525;28;20080;-85
2021/06/14 07:40:48;;;;;;;4.25;3.28;;;25.20;90.00;;;;;;5058682;28;20060;-85
2021/06/14 07:43:15;;;;;;;3.38;2.58;;;25.20;90.00;;;;;;5093300;28;20388;-85
2021/06/14 07:45:43;;;;;;;3.97;2.45;;;25.20;90.00;;;;;;5075298;28;20081;-86
2021/06/14 07:48:10;;;;;;;3.78;2.45;;;25.20;90.00;;;;;;5075173;28;20067;-84
2021/06/14 07:50:36;;;;;;;5.30;2.42;;;25.20;89.90;;;;;;5075337;28;20111;-84
2021/06/14 07:53:02;;;;;;;3.40;2.53;;;25.20;89.90;;;;;;5075191;28;20131;-83
2021/06/14 07:55:28;;;;;;;2.53;2.30;;;25.30;89.80;;;;;;5075466;28;20028;-84
2021/06/14 07:57:54;;;;;;;2.78;2.47;;;25.30;89.80;;;;;;5093374;28;20081;-84
2021/06/14 08:00:20;;;;;;;3.28;2.45;;;25.30;89.70;;;;;;5058855;28;20036;-84
2021/06/14 08:02:47;;;;;;;2.38;2.17;;;25.20;89.70;;;;;;5093191;28;20035;-84
2021/06/14 08:05:13;;;;;;;2.00;1.80;;;25.30;89.80;;;;;;5042143;28;20063;-84
2021/06/14 08:07:39;;;;;;;2.28;1.92;;;25.30;89.90;;;;;;5075038;28;20068;-85
2021/06/14 08:10:07;;;;;;;2.40;1.80;;;25.30;89.90;;;;;;5058291;28;20021;-84
2021/06/14 08:12:37;;;;;;;2.60;2.10;;;25.30;90.00;;;;;;5063400;28;20044;-85
2021/06/14 08:15:03;;;;;;;2.47;2.10;;;25.30;90.00;;;;;;5056606;28;20029;-85
2021/06/14 08:17:29;;;;;;;2.10;1.90;;;25.30;90.00;;;;;;5035111;28;20064;-84
2021/06/14 08:25:05;;;;;;;2.20;1.73;;;25.30;89.70;;;;;;5035676;28;20041;-84
2021/06/14 08:27:32;;;;;;;;;;;25.30;89.70;;;;;;5036367;28;20490;-85
2021/06/14 08:29:58;;;;;;;2.13;1.70;;;25.30;89.70;;;;;;5036840;28;19909;-84
2021/06/14 08:32:23;;;;;;;3.13;1.90;;;25.30;89.80;;;;;;5035595;28;20030;-84
2021/06/14 08:34:49;;;;;;;2.60;2.00;;;25.30;89.80;;;;;;5002537;28;20033;-85
2021/06/14 08:37:15;;;;;;;2.45;1.70;;;25.30;89.70;;;;;;5035335;28;20476;-85
2021/06/14 08:39:40;;;;;;;2.22;1.80;;;25.30;89.70;;;;;;5002620;28;20072;-84
2021/06/14 08:42:06;;;;;;;2.25;1.55;;;25.30;89.70;;;;;;5034953;28;20113;-85
2021/06/14 08:44:32;;;;;;;2.00;1.70;;;25.30;89.70;;;;;;5034971;28;20036;-84
2021/06/14 08:47:02;;;;;;;2.45;1.80;;;25.30;89.50;;;;;;5035117;28;20136;-84
2021/06/14 08:49:28;;;;;;;1.67;1.58;;;25.30;89.40;;;;;;5036240;28;20072;-84
2021/06/14 08:51:54;;;;;;;3.15;2.10;;;25.30;89.30;;;;;;5034919;28;20466;-85
2021/06/14 08:54:20;;;;;;;3.28;1.80;;;25.40;89.30;;;;;;5018668;28;20037;-84
2021/06/14 08:56:46;;;;;;;2.03;1.83;;;25.40;89.20;;;;;;5034598;28;20060;-85
2021/06/14 08:59:12;;;;;;;2.40;1.90;;;25.30;89.10;;;;;;5018041;28;20068;-85
2021/06/14 09:01:37;;;;;;;2.35;1.85;;;25.40;89.10;;;;;;5035997;28;20061;-85
2021/06/14 09:04:03;;;;;;;1.48;1.35;;;25.40;89.00;;;;;;5018311;28;20570;-84
2021/06/14 09:06:29;;;;;;;3.25;1.80;;;25.40;89.30;;;;;;5034707;28;20033;-84
2021/06/14 09:09:04;;;;;;;3.35;1.98;;;25.40;88.60;;;;;;5034289;28;20044;-85
2021/06/14 09:11:31;;;;;;;2.15;1.80;;;25.40;88.60;;;;;;5059042;28;20490;-84
2021/06/14 09:13:59;;;;;;;2.17;1.65;;;25.30;88.40;;;;;;5041309;28;20116;-84
2021/06/14 09:16:30;;;;;;;1.83;1.73;;;25.40;88.30;;;;;;5075608;28;20069;-85
2021/06/14 09:18:56;;;;;;;1.77;1.63;;;25.40;88.40;;;;;;5057435;28;20036;-84
2021/06/14 09:21:26;;;;;;;1.85;1.63;;;25.40;88.40;;;;;;5041430;28;20068;-84
2021/06/14 09:23:58;;;;;;;2.70;1.80;;;25.40;88.40;;;;;;5058168;28;20112;-86
2021/06/14 09:26:38;;;;;;;2.72;2.08;;;25.40;88.50;;;;;;5057461;28;20123;-86
2021/06/14 09:29:06;;;;;;;3.08;1.88;;;25.40;88.40;;;;;;5056943;28;20540;-86
2021/06/14 09:32:03;;;;;;;1.98;1.73;;;25.40;88.30;;;;;;5075746;28;20055;-85
2021/06/14 09:34:36;;;;;;;2.28;1.77;;;25.40;88.20;;;;;;5057414;28;20466;-85
2021/06/14 09:37:05;;;;;;;2.33;1.95;;;25.40;88.30;;;;;;5075321;28;20024;-86
2021/06/14 09:39:39;;;;;;;1.60;1.50;;;25.40;88.40;;;;;;5057939;28;20059;-85
2021/06/14 09:42:31;;;;;;;1.58;1.38;;;25.40;88.50;;;;;;5057114;28;20029;-86
2021/06/14 09:45:06;;;;;;;1.95;1.60;;;25.50;88.60;;;;;;5053114;28;20032;-86
2021/06/14 09:47:31;;;;;;;;;;;25.50;88.70;;;;;;5075401;28;20043;-86
2021/06/14 09:50:04;;;;;;;1.27;1.10;;;25.50;88.70;;;;;;5057778;28;19904;-85
2021/06/14 09:52:29;;;;;;;1.13;1.02;;;25.50;88.90;;;;;;5083360;28;20033;-85
2021/06/14 09:55:06;;;;;;;1.15;1.08;;;25.50;89.00;;;;;;5078331;28;20081;-85
2021/06/14 09:57:32;;;;;;;1.40;1.10;;;25.50;89.00;;;;;;5056818;28;20490;-85
2021/06/14 10:00:15;;;;;;;1.30;1.20;;;25.50;89.00;;;;;;5075042;28;20024;-85
2021/06/14 10:02:41;;;;;;;1.25;1.15;;;25.60;89.00;;;;;;5040528;28;20036;-84
2021/06/14 10:05:21;;;;;;;1.20;1.10;;;25.60;89.10;;;;;;5023778;28;20032;-85
2021/06/14 10:07:49;;;;;;;1.27;1.13;;;25.60;89.10;;;;;;5056868;28;20033;-84
2021/06/14 10:10:26;;;;;;;1.17;1.08;;;25.60;89.20;;;;;;5056402;28;20036;-85
2021/06/14 10:12:54;;;;;;;0.90;0.90;;;25.60;89.10;;;;;;5057261;28;20029;-84
2021/06/14 10:15:37;;;;;;;1.27;1.15;;;25.70;89.20;;;;;;5040475;28;20089;-84
2021/06/14 10:18:08;;;;;;;1.08;0.98;;;25.70;89.20;;;;;;5056518;28;20028;-86
2021/06/14 10:20:37;;;;;;;0.80;0.80;;;25.70;89.20;;;;;;5075279;28;20020;-84
2021/06/14 10:23:03;;;;;;;1.10;0.90;;;25.70;89.20;;;;;;5058434;28;20071;-84
2021/06/14 10:25:29;;;;;;;0.80;0.80;;;25.70;89.20;;;;;;5057016;28;20035;-81
2021/06/14 10:27:55;;;;;;;0.90;0.88;;;25.70;89.20;;;;;;5074601;28;20021;-81
2021/06/14 10:30:23;;;;;;;1.55;1.10;;;25.70;89.20;;;;;;5039604;28;20039;-81
2021/06/14 10:32:50;;;;;;;1.20;1.10;;;25.70;89.20;;;;;;5039920;28;20032;-82
2021/06/14 10:35:19;;;;;;;1.17;1.08;;;25.70;89.20;;;;;;5039252;28;20028;-82
2021/06/14 10:37:47;;;;;;;0.90;0.90;;;25.80;89.30;;;;;;5039474;28;20060;-82
2021/06/14 10:40:16;;;;;;;1.20;1.10;;;25.80;89.20;;;;;;5073669;28;20451;-82
2021/06/14 10:42:45;;;;;;;1.35;0.93;;;25.80;89.10;;;;;;5074001;28;20107;-82
2021/06/14 10:45:13;;;;;;;0.90;0.90;;;25.80;89.00;;;;;;5073461;28;20027;-82
2021/06/14 10:47:40;;;;;;;1.02;0.90;;;25.80;89.00;;;;;;5073526;28;20064;-82
2021/06/14 10:50:11;;;;;;;1.08;0.98;;;25.90;89.00;;;;;;5055661;28;20554;-82
2021/06/14 10:52:41;;;;;;;1.23;1.13;;;25.90;88.90;;;;;;5056221;28;20029;-83
2021/06/14 10:55:11;;;;;;;1.30;1.20;;;25.90;88.90;;;;;;5038829;28;20112;-82
2021/06/14 10:57:37;;;;;;;1.15;1.00;;;25.90;88.90;;;;;;5055432;28;20036;-82
2021/06/14 11:00:17;;;;;;;1.25;1.10;;;25.90;88.80;;;;;;5055387;28;20029;-83
2021/06/14 11:02:55;;;;;;;1.20;1.10;;;25.90;88.80;;;;;;5041340;28;20048;-81
2021/06/14 11:05:57;;;;;;;1.20;1.10;;;26.00;88.90;;;;;;5055481;28;20031;-81
2021/06/14 11:08:24;;;;;;;0.90;0.90;;;26.00;88.90;;;;;;5026626;28;20149;-83
2021/06/14 11:10:58;;;;;;;1.10;1.00;;;26.00;89.00;;;;;;5073083;28;20075;-82
2021/06/14 11:13:24;;;;;;;1.70;1.40;;;26.00;89.00;;;;;;5073088;28;20028;-82
2021/06/14 11:15:57;;;;;;;1.35;1.20;;;26.00;89.00;;;;;;5055727;28;20059;-82
2021/06/14 11:18:24;;;;;;;1.10;1.00;;;26.00;89.00;;;;;;5073442;28;20040;-82
2021/06/14 11:20:53;;;;;;;1.20;1.10;;;26.00;88.90;;;;;;5073367;28;20055;-82
2021/06/14 11:23:23;;;;;;;1.40;1.30;;;26.10;89.00;;;;;;5072455;28;20116;-82
2021/06/14 11:25:51;;;;;;;1.30;1.20;;;26.10;89.00;;;;;;5073318;28;20454;-82
2021/06/14 11:28:41;;;;;;;1.05;0.93;;;26.10;88.90;;;;;;5055058;28;20504;-83
2021/06/14 11:31:15;;;;;;;1.80;1.20;;;26.10;88.80;;;;;;5075754;28;20047;-82
2021/06/14 11:33:42;;;;;;;1.10;1.00;;;26.10;88.90;;;;;;5055432;28;20032;-82
2021/06/14 11:36:18;;;;;;;1.52;1.30;;;26.10;88.80;;;;;;5038360;28;20390;-83
2021/06/14 11:38:44;;;;;;;1.00;0.90;;;26.10;88.70;;;;;;5072782;28;20074;-82
2021/06/14 11:41:10;;;;;;;1.55;1.25;;;26.10;88.70;;;;;;5054671;28;20103;-83
2021/06/14 11:43:36;;;;;;;1.15;1.05;;;26.10;88.70;;;;;;5072719;28;20116;-83
2021/06/14 11:46:22;;;;;;;1.20;1.10;;;26.10;88.60;;;;;;5054819;28;20474;-82
2021/06/14 11:48:48;;;;;;;1.23;1.10;;;26.10;88.60;;;;;;5072914;28;20021;-82
2021/06/14 11:51:20;;;;;;;1.27;1.15;;;26.10;88.60;;;;;;5037926;28;20385;-83
2021/06/14 11:53:57;;;;;;;1.13;1.02;;;26.20;88.70;;;;;;5072910;28;20033;-83
2021/06/14 11:56:26;;;;;;;1.23;1.13;;;26.20;88.70;;;;;;5072661;28;20028;-83
2021/06/14 11:58:55;;;;;;;1.05;0.93;;;26.20;89.20;;;;;;5057309;28;20082;-82
2021/06/14 12:01:28;;;;;;;1.45;1.35;;;26.20;88.60;;;;;;5077042;28;20023;-82
2021/06/14 12:03:56;;;;;;;1.27;0.90;;;26.20;88.60;;;;;;5097119;28;20020;-82
2021/06/14 12:06:22;;;;;;;1.17;1.08;;;26.20;88.60;;;;;;5078220;28;20848;-82
2021/06/14 12:08:48;;;;;;;1.15;1.05;;;26.20;88.50;;;;;;5062605;28;20021;-82
2021/06/14 12:11:14;;;;;;;1.52;1.08;;;26.20;88.50;;;;;;5096357;28;20124;-82
2021/06/14 12:13:40;;;;;;;1.20;1.10;;;26.20;88.50;;;;;;5097159;28;20024;-81
2021/06/14 12:16:07;;;;;;;1.25;1.15;;;26.20;88.50;;;;;;5096582;28;20032;-82
2021/06/14 12:18:33;;;;;;;0.93;0.88;;;26.20;88.50;;;;;;5096537;28;20031;-82
2021/06/14 12:21:03;;;;;;;1.00;0.90;;;26.30;88.50;;;;;;5078682;28;20024;-82
2021/06/14 12:23:42;;;;;;;1.60;1.30;;;26.30;88.50;;;;;;5078100;28;20102;-82
2021/06/14 12:26:10;;;;;;;1.10;0.93;;;26.30;88.50;;;;;;5078422;28;20032;-82
2021/06/14 12:28:38;;;;;;;1.10;1.00;;;26.30;88.50;;;;;;5078460;28;20043;-82
2021/06/14 12:31:08;;;;;;;0.93;0.82;;;26.30;88.50;;;;;;5096591;28;20028;-82
2021/06/14 12:33:36;;;;;;;1.35;1.15;;;26.30;88.50;;;;;;5096274;28;20024;-82
2021/06/14 12:36:03;;;;;;;1.48;1.05;;;26.30;88.40;;;;;;5078332;28;20031;-83
2021/06/14 12:38:29;;;;;;;1.10;1.00;;;26.30;88.40;;;;;;5078173;28;20381;-82
2021/06/14 12:40:56;;;;;;;0.82;0.82;;;26.30;88.40;;;;;;5078539;28;20478;-83
2021/06/14 12:43:22;;;;;;;1.10;1.00;;;26.30;88.40;;;;;;5061801;28;20482;-83
2021/06/14 12:45:48;;;;;;;1.20;1.08;;;26.30;88.50;;;;;;5078263;28;20028;-82
2021/06/14 12:48:17;;;;;;;1.27;1.17;;;26.30;88.50;;;;;;5060960;28;20199;-84
2021/06/14 12:50:47;;;;;;;1.00;0.90;;;26.30;88.40;;;;;;5096116;28;20494;-82
2021/06/14 12:53:18;;;;;;;0.95;0.90;;;26.30;88.50;;;;;;5078219;28;20119;-86
2021/06/14 12:55:50;;;;;;;0.73;0.73;;;26.30;88.50;;;;;;5078292;28;20020;-83